sensor_id;sensor_type;location;lat;lon;timestamp;P1;durP1;ratioP1;P2;durP2;ratioP2
20972;SDS011;10645;52.370;13.314;2024-01-16T00:02:01;2.00;;;0.77;;
20972;SDS011;10645;52.370;13.314;2024-01-16T00:04:27;0.20;;;0.17;;
20972;SDS011;10645;52.370;13.314;2024-01-16T00:06:55;0.20;;;0.10;;
20972;SDS011;10645;52.370;13.314;2024-01-16T00:09:21;0.10;;;0.10;;
20972;SDS011;10645;52.370;13.314;2024-01-16T00:11:47;0.80;;;0.50;;
20972;SDS011;10645;52.370;13.314;2024-01-16T00:14:13;0.00;;;0.00;;
20972;SDS011;10645;52.370;13.314;2024-01-16T00:16:43;1.90;;;0.20;;
20972;SDS011;10645;52.370;13.314;2024-01-16T00:19:10;0.27;;;0.27;;
20972;SDS011;10645;52.370;13.314;2024-01-16T00:21:41;0.37;;;0.37;;
20972;SDS011;10645;52.370;13.314;2024-01-16T00:24:07;1.33;;;1.23;;
20972;SDS011;10645;52.370;13.314;2024-01-16T00:26:33;0.30;;;0.30;;
20972;SDS011;10645;52.370;13.314;2024-01-16T00:29:00;0.13;;;0.13;;
20972;SDS011;10645;52.370;13.314;2024-01-16T00:31:26;0.07;;;0.07;;
20972;SDS011;10645;52.370;13.314;2024-01-16T00:33:53;0.00;;;0.00;;
20972;SDS011;10645;52.370;13.314;2024-01-16T00:36:19;0.13;;;0.13;;
20972;SDS011;10645;52.370;13.314;2024-01-16T00:38:45;0.07;;;0.07;;
20972;SDS011;10645;52.370;13.314;2024-01-16T00:41:14;0.30;;;0.30;;
20972;SDS011;10645;52.370;13.314;2024-01-16T00:43:41;0.30;;;0.30;;
20972;SDS011;10645;52.370;13.314;2024-01-16T00:46:09;0.30;;;0.30;;
20972;SDS011;10645;52.370;13.314;2024-01-16T00:48:35;6.60;;;0.90;;
20972;SDS011;10645;52.370;13.314;2024-01-16T00:51:01;0.20;;;0.10;;
20972;SDS011;10645;52.370;13.314;2024-01-16T00:53:27;0.10;;;0.10;;
20972;SDS011;10645;52.370;13.314;2024-01-16T00:55:53;0.47;;;0.47;;
20972;SDS011;10645;52.370;13.314;2024-01-16T00:58:23;0.00;;;0.00;;
20972;SDS011;10645;52.370;13.314;2024-01-16T01:00:49;0.20;;;0.20;;
20972;SDS011;10645;52.370;13.314;2024-01-16T01:03:15;0.23;;;0.20;;
20972;SDS011;10645;52.370;13.314;2024-01-16T01:05:41;0.00;;;0.00;;
20972;SDS011;10645;52.370;13.314;2024-01-16T01:08:07;0.40;;;0.40;;
20972;SDS011;10645;52.370;13.314;2024-01-16T01:10:34;0.70;;;0.33;;
20972;SDS011;10645;52.370;13.314;2024-01-16T01:13:00;0.97;;;0.97;;
20972;SDS011;10645;52.370;13.314;2024-01-16T01:15:26;0.10;;;0.10;;
20972;SDS011;10645;52.370;13.314;2024-01-16T01:17:52;0.00;;;0.00;;
20972;SDS011;10645;52.370;13.314;2024-01-16T01:20:19;0.40;;;0.40;;
20972;SDS011;10645;52.370;13.314;2024-01-16T01:22:45;0.00;;;0.00;;
20972;SDS011;10645;52.370;13.314;2024-01-16T01:25:12;0.20;;;0.10;;
20972;SDS011;10645;52.370;13.314;2024-01-16T01:27:38;0.00;;;0.00;;
20972;SDS011;10645;52.370;13.314;2024-01-16T01:30:05;0.00;;;0.00;;
20972;SDS011;10645;52.370;13.314;2024-01-16T01:32:34;0.00;;;0.00;;
20972;SDS011;10645;52.370;13.314;2024-01-16T01:35:00;1.50;;;0.97;;
20972;SDS011;10645;52.370;13.314;2024-01-16T01:37:26;0.67;;;0.67;;
20972;SDS011;10645;52.370;13.314;2024-01-16T01:39:52;0.03;;;0.03;;
20972;SDS011;10645;52.370;13.314;2024-01-16T01:42:18;0.23;;;0.23;;
20972;SDS011;10645;52.370;13.314;2024-01-16T01:44:44;0.33;;;0.20;;
20972;SDS011;10645;52.370;13.314;2024-01-16T01:47:11;0.07;;;0.07;;
20972;SDS011;10645;52.370;13.314;2024-01-16T01:49:37;0.00;;;0.00;;
20972;SDS011;10645;52.370;13.314;2024-01-16T01:52:03;0.03;;;0.03;;
20972;SDS011;10645;52.370;13.314;2024-01-16T01:54:30;0.20;;;0.20;;
20972;SDS011;10645;52.370;13.314;2024-01-16T01:56:58;0.00;;;0.00;;
20972;SDS011;10645;52.370;13.314;2024-01-16T01:59:24;0.00;;;0.00;;
20972;SDS011;10645;52.370;13.314;2024-01-16T02:01:51;1.53;;;0.77;;
20972;SDS011;10645;52.370;13.314;2024-01-16T02:04:19;1.40;;;0.83;;
20972;SDS011;10645;52.370;13.314;2024-01-16T02:06:45;0.43;;;0.37;;
20972;SDS011;10645;52.370;13.314;2024-01-16T02:09:12;0.20;;;0.00;;
20972;SDS011;10645;52.370;13.314;2024-01-16T02:11:39;0.00;;;0.00;;
20972;SDS011;10645;52.370;13.314;2024-01-16T02:14:09;0.83;;;0.83;;
20972;SDS011;10645;52.370;13.314;2024-01-16T02:16:36;0.00;;;0.00;;
20972;SDS011;10645;52.370;13.314;2024-01-16T02:19:04;0.33;;;0.17;;
20972;SDS011;10645;52.370;13.314;2024-01-16T02:21:31;0.00;;;0.00;;
20972;SDS011;10645;52.370;13.314;2024-01-16T02:24:03;0.00;;;0.00;;
20972;SDS011;10645;52.370;13.314;2024-01-16T02:26:33;0.00;;;0.00;;
20972;SDS011;10645;52.370;13.314;2024-01-16T02:29:00;0.00;;;0.00;;
20972;SDS011;10645;52.370;13.314;2024-01-16T02:31:27;0.00;;;0.00;;
20972;SDS011;10645;52.370;13.314;2024-01-16T02:33:53;0.70;;;0.70;;
20972;SDS011;10645;52.370;13.314;2024-01-16T02:36:19;0.10;;;0.10;;
20972;SDS011;10645;52.370;13.314;2024-01-16T02:38:45;0.00;;;0.00;;
20972;SDS011;10645;52.370;13.314;2024-01-16T02:41:13;0.77;;;0.67;;
20972;SDS011;10645;52.370;13.314;2024-01-16T02:43:40;0.00;;;0.00;;
20972;SDS011;10645;52.370;13.314;2024-01-16T02:46:06;0.00;;;0.00;;
20972;SDS011;10645;52.370;13.314;2024-01-16T02:48:32;0.20;;;0.10;;
20972;SDS011;10645;52.370;13.314;2024-01-16T02:50:58;0.87;;;0.87;;
20972;SDS011;10645;52.370;13.314;2024-01-16T02:53:25;0.00;;;0.00;;
20972;SDS011;10645;52.370;13.314;2024-01-16T02:55:51;0.00;;;0.00;;
20972;SDS011;10645;52.370;13.314;2024-01-16T02:58:17;1.33;;;0.57;;
20972;SDS011;10645;52.370;13.314;2024-01-16T03:00:43;0.20;;;0.20;;
20972;SDS011;10645;52.370;13.314;2024-01-16T03:03:10;0.00;;;0.00;;
20972;SDS011;10645;52.370;13.314;2024-01-16T03:05:36;0.50;;;0.47;;
20972;SDS011;10645;52.370;13.314;2024-01-16T03:08:02;0.17;;;0.17;;
20972;SDS011;10645;52.370;13.314;2024-01-16T03:10:28;1.10;;;0.23;;
20972;SDS011;10645;52.370;13.314;2024-01-16T03:12:54;0.00;;;0.00;;
20972;SDS011;10645;52.370;13.314;2024-01-16T03:15:21;0.20;;;0.20;;
20972;SDS011;10645;52.370;13.314;2024-01-16T03:17:47;0.00;;;0.00;;
20972;SDS011;10645;52.370;13.314;2024-01-16T03:20:13;0.10;;;0.10;;
20972;SDS011;10645;52.370;13.314;2024-01-16T03:22:40;0.40;;;0.37;;
20972;SDS011;10645;52.370;13.314;2024-01-16T03:25:07;0.10;;;0.10;;
20972;SDS011;10645;52.370;13.314;2024-01-16T03:27:34;0.00;;;0.00;;
20972;SDS011;10645;52.370;13.314;2024-01-16T03:30:01;1.70;;;1.03;;
20972;SDS011;10645;52.370;13.314;2024-01-16T03:32:27;0.07;;;0.07;;
20972;SDS011;10645;52.370;13.314;2024-01-16T03:34:53;0.23;;;0.23;;
20972;SDS011;10645;52.370;13.314;2024-01-16T03:37:19;0.30;;;0.30;;
20972;SDS011;10645;52.370;13.314;2024-01-16T03:39:45;0.00;;;0.00;;
20972;SDS011;10645;52.370;13.314;2024-01-16T03:42:11;0.00;;;0.00;;
20972;SDS011;10645;52.370;13.314;2024-01-16T03:44:41;0.37;;;0.37;;
20972;SDS011;10645;52.370;13.314;2024-01-16T03:47:08;0.00;;;0.00;;
20972;SDS011;10645;52.370;13.314;2024-01-16T03:49:34;0.00;;;0.00;;
20972;SDS011;10645;52.370;13.314;2024-01-16T03:52:01;0.00;;;0.00;;
20972;SDS011;10645;52.370;13.314;2024-01-16T03:54:27;0.10;;;0.10;;
20972;SDS011;10645;52.370;13.314;2024-01-16T03:56:53;0.33;;;0.33;;
20972;SDS011;10645;52.370;13.314;2024-01-16T03:59:19;0.47;;;0.47;;
20972;SDS011;10645;52.370;13.314;2024-01-16T04:01:45;0.00;;;0.00;;
20972;SDS011;10645;52.370;13.314;2024-01-16T04:04:13;0.00;;;0.00;;
20972;SDS011;10645;52.370;13.314;2024-01-16T04:06:40;0.20;;;0.20;;
20972;SDS011;10645;52.370;13.314;2024-01-16T04:09:07;0.00;;;0.00;;
20972;SDS011;10645;52.370;13.314;2024-01-16T04:11:33;0.37;;;0.37;;
20972;SDS011;10645;52.370;13.314;2024-01-16T04:14:00;0.20;;;0.20;;
20972;SDS011;10645;52.370;13.314;2024-01-16T04:16:26;1.40;;;1.40;;
20972;SDS011;10645;52.370;13.314;2024-01-16T04:18:52;0.73;;;0.73;;
20972;SDS011;10645;52.370;13.314;2024-01-16T04:21:18;0.87;;;0.43;;
20972;SDS011;10645;52.370;13.314;2024-01-16T04:23:45;1.80;;;0.77;;
20972;SDS011;10645;52.370;13.314;2024-01-16T04:26:11;0.30;;;0.30;;
20972;SDS011;10645;52.370;13.314;2024-01-16T04:28:37;0.50;;;0.50;;
20972;SDS011;10645;52.370;13.314;2024-01-16T04:31:03;0.10;;;0.10;;
20972;SDS011;10645;52.370;13.314;2024-01-16T04:33:30;0.57;;;0.57;;
20972;SDS011;10645;52.370;13.314;2024-01-16T04:35:56;0.40;;;0.40;;
20972;SDS011;10645;52.370;13.314;2024-01-16T04:38:22;0.10;;;0.00;;
20972;SDS011;10645;52.370;13.314;2024-01-16T04:40:49;0.43;;;0.43;;
20972;SDS011;10645;52.370;13.314;2024-01-16T04:43:15;0.20;;;0.20;;
20972;SDS011;10645;52.370;13.314;2024-01-16T04:45:41;0.10;;;0.10;;
20972;SDS011;10645;52.370;13.314;2024-01-16T04:48:08;1.00;;;1.00;;
20972;SDS011;10645;52.370;13.314;2024-01-16T04:50:34;13.23;;;2.50;;
20972;SDS011;10645;52.370;13.314;2024-01-16T04:53:01;4.23;;;3.90;;
20972;SDS011;10645;52.370;13.314;2024-01-16T04:55:27;8.73;;;5.60;;
20972;SDS011;10645;52.370;13.314;2024-01-16T04:57:54;6.27;;;4.00;;
20972;SDS011;10645;52.370;13.314;2024-01-16T05:00:20;2.10;;;2.00;;
20972;SDS011;10645;52.370;13.314;2024-01-16T05:02:47;9.30;;;8.23;;
20972;SDS011;10645;52.370;13.314;2024-01-16T05:05:13;22.43;;;15.80;;
20972;SDS011;10645;52.370;13.314;2024-01-16T05:07:40;9.07;;;8.07;;
20972;SDS011;10645;52.370;13.314;2024-01-16T05:10:06;0.50;;;0.17;;
20972;SDS011;10645;52.370;13.314;2024-01-16T05:12:35;0.83;;;0.40;;
20972;SDS011;10645;52.370;13.314;2024-01-16T05:15:01;1.03;;;0.97;;
20972;SDS011;10645;52.370;13.314;2024-01-16T05:17:29;0.57;;;0.57;;
20972;SDS011;10645;52.370;13.314;2024-01-16T05:19:55;0.47;;;0.47;;
20972;SDS011;10645;52.370;13.314;2024-01-16T05:22:22;0.73;;;0.73;;
20972;SDS011;10645;52.370;13.314;2024-01-16T05:24:48;0.23;;;0.23;;
20972;SDS011;10645;52.370;13.314;2024-01-16T05:27:14;0.00;;;0.00;;
20972;SDS011;10645;52.370;13.314;2024-01-16T05:29:40;0.77;;;0.70;;
20972;SDS011;10645;52.370;13.314;2024-01-16T05:32:07;0.73;;;0.73;;
20972;SDS011;10645;52.370;13.314;2024-01-16T05:34:36;2.43;;;1.80;;
20972;SDS011;10645;52.370;13.314;2024-01-16T05:37:02;0.20;;;0.20;;
20972;SDS011;10645;52.370;13.314;2024-01-16T05:39:29;0.10;;;0.10;;
20972;SDS011;10645;52.370;13.314;2024-01-16T05:41:55;0.67;;;0.67;;
20972;SDS011;10645;52.370;13.314;2024-01-16T05:44:21;0.63;;;0.63;;
20972;SDS011;10645;52.370;13.314;2024-01-16T05:46:47;0.23;;;0.23;;
20972;SDS011;10645;52.370;13.314;2024-01-16T05:49:13;1.63;;;1.57;;
20972;SDS011;10645;52.370;13.314;2024-01-16T05:51:39;0.50;;;0.40;;
20972;SDS011;10645;52.370;13.314;2024-01-16T05:54:05;0.10;;;0.10;;
20972;SDS011;10645;52.370;13.314;2024-01-16T05:56:31;0.60;;;0.60;;
20972;SDS011;10645;52.370;13.314;2024-01-16T05:58:59;0.13;;;0.13;;
20972;SDS011;10645;52.370;13.314;2024-01-16T06:01:25;0.20;;;0.20;;
20972;SDS011;10645;52.370;13.314;2024-01-16T06:03:53;0.70;;;0.70;;
20972;SDS011;10645;52.370;13.314;2024-01-16T06:06:19;0.10;;;0.10;;
20972;SDS011;10645;52.370;13.314;2024-01-16T06:08:45;0.50;;;0.50;;
20972;SDS011;10645;52.370;13.314;2024-01-16T06:11:11;0.07;;;0.03;;
20972;SDS011;10645;52.370;13.314;2024-01-16T06:13:38;0.00;;;0.00;;
20972;SDS011;10645;52.370;13.314;2024-01-16T06:16:07;0.47;;;0.47;;
20972;SDS011;10645;52.370;13.314;2024-01-16T06:18:34;1.07;;;1.00;;
20972;SDS011;10645;52.370;13.314;2024-01-16T06:21:01;0.10;;;0.10;;
20972;SDS011;10645;52.370;13.314;2024-01-16T06:23:28;0.97;;;0.97;;
20972;SDS011;10645;52.370;13.314;2024-01-16T06:25:54;0.07;;;0.07;;
20972;SDS011;10645;52.370;13.314;2024-01-16T06:28:20;0.20;;;0.20;;
20972;SDS011;10645;52.370;13.314;2024-01-16T06:30:47;0.13;;;0.13;;
20972;SDS011;10645;52.370;13.314;2024-01-16T06:33:13;0.73;;;0.53;;
20972;SDS011;10645;52.370;13.314;2024-01-16T06:35:39;1.63;;;1.50;;
20972;SDS011;10645;52.370;13.314;2024-01-16T06:38:05;0.00;;;0.00;;
20972;SDS011;10645;52.370;13.314;2024-01-16T06:40:31;1.50;;;1.40;;
20972;SDS011;10645;52.370;13.314;2024-01-16T06:42:57;2.03;;;1.17;;
20972;SDS011;10645;52.370;13.314;2024-01-16T06:45:23;0.00;;;0.00;;
20972;SDS011;10645;52.370;13.314;2024-01-16T06:47:51;0.93;;;0.93;;
20972;SDS011;10645;52.370;13.314;2024-01-16T06:50:17;0.63;;;0.20;;
20972;SDS011;10645;52.370;13.314;2024-01-16T06:52:45;1.17;;;1.17;;
20972;SDS011;10645;52.370;13.314;2024-01-16T06:55:11;2.13;;;2.03;;
20972;SDS011;10645;52.370;13.314;2024-01-16T06:57:37;0.37;;;0.37;;
20972;SDS011;10645;52.370;13.314;2024-01-16T07:00:03;0.90;;;0.90;;
20972;SDS011;10645;52.370;13.314;2024-01-16T07:02:32;0.70;;;0.70;;
20972;SDS011;10645;52.370;13.314;2024-01-16T07:04:58;1.83;;;1.73;;
20972;SDS011;10645;52.370;13.314;2024-01-16T07:07:25;1.03;;;0.90;;
20972;SDS011;10645;52.370;13.314;2024-01-16T07:09:51;1.63;;;1.50;;
20972;SDS011;10645;52.370;13.314;2024-01-16T07:12:17;1.97;;;0.87;;
20972;SDS011;10645;52.370;13.314;2024-01-16T07:14:43;0.10;;;0.10;;
20972;SDS011;10645;52.370;13.314;2024-01-16T07:17:09;0.33;;;0.33;;
20972;SDS011;10645;52.370;13.314;2024-01-16T07:19:35;1.40;;;0.83;;
20972;SDS011;10645;52.370;13.314;2024-01-16T07:22:02;1.30;;;1.03;;
20972;SDS011;10645;52.370;13.314;2024-01-16T07:24:28;0.60;;;0.60;;
20972;SDS011;10645;52.370;13.314;2024-01-16T07:26:54;1.57;;;1.30;;
20972;SDS011;10645;52.370;13.314;2024-01-16T07:29:20;1.07;;;1.03;;
20972;SDS011;10645;52.370;13.314;2024-01-16T07:31:46;3.70;;;0.90;;
20972;SDS011;10645;52.370;13.314;2024-01-16T07:34:12;0.90;;;0.80;;
20972;SDS011;10645;52.370;13.314;2024-01-16T07:36:42;2.23;;;2.13;;
20972;SDS011;10645;52.370;13.314;2024-01-16T07:39:08;0.77;;;0.77;;
20972;SDS011;10645;52.370;13.314;2024-01-16T07:41:34;0.00;;;0.00;;
20972;SDS011;10645;52.370;13.314;2024-01-16T07:44:01;0.40;;;0.37;;
20972;SDS011;10645;52.370;13.314;2024-01-16T07:46:28;2.03;;;1.93;;
20972;SDS011;10645;52.370;13.314;2024-01-16T07:48:54;0.90;;;0.60;;
20972;SDS011;10645;52.370;13.314;2024-01-16T07:51:20;0.60;;;0.60;;
20972;SDS011;10645;52.370;13.314;2024-01-16T07:53:46;1.10;;;0.93;;
20972;SDS011;10645;52.370;13.314;2024-01-16T07:56:14;2.07;;;1.97;;
20972;SDS011;10645;52.370;13.314;2024-01-16T07:58:40;1.07;;;1.07;;
20972;SDS011;10645;52.370;13.314;2024-01-16T08:01:06;2.33;;;2.17;;
20972;SDS011;10645;52.370;13.314;2024-01-16T08:03:32;0.87;;;0.73;;
20972;SDS011;10645;52.370;13.314;2024-01-16T08:05:58;1.10;;;1.10;;
20972;SDS011;10645;52.370;13.314;2024-01-16T08:08:25;7.77;;;1.33;;
20972;SDS011;10645;52.370;13.314;2024-01-16T08:10:51;0.57;;;0.57;;
20972;SDS011;10645;52.370;13.314;2024-01-16T08:13:17;2.10;;;1.97;;
20972;SDS011;10645;52.370;13.314;2024-01-16T08:15:43;0.77;;;0.77;;
20972;SDS011;10645;52.370;13.314;2024-01-16T08:18:09;2.70;;;2.17;;
20972;SDS011;10645;52.370;13.314;2024-01-16T08:20:35;1.83;;;1.57;;
20972;SDS011;10645;52.370;13.314;2024-01-16T08:23:01;0.77;;;0.77;;
20972;SDS011;10645;52.370;13.314;2024-01-16T08:25:27;2.10;;;0.70;;
20972;SDS011;10645;52.370;13.314;2024-01-16T08:27:53;0.73;;;0.73;;
20972;SDS011;10645;52.370;13.314;2024-01-16T08:30:19;1.63;;;1.53;;
20972;SDS011;10645;52.370;13.314;2024-01-16T08:32:46;0.40;;;0.40;;
20972;SDS011;10645;52.370;13.314;2024-01-16T08:35:12;2.13;;;0.90;;
20972;SDS011;10645;52.370;13.314;2024-01-16T08:37:38;2.30;;;1.80;;
20972;SDS011;10645;52.370;13.314;2024-01-16T08:40:04;0.83;;;0.83;;
20972;SDS011;10645;52.370;13.314;2024-01-16T08:42:31;1.53;;;1.43;;
20972;SDS011;10645;52.370;13.314;2024-01-16T08:44:57;1.87;;;1.70;;
20972;SDS011;10645;52.370;13.314;2024-01-16T08:47:23;2.13;;;1.60;;
20972;SDS011;10645;52.370;13.314;2024-01-16T08:49:49;2.87;;;1.23;;
20972;SDS011;10645;52.370;13.314;2024-01-16T08:52:15;2.67;;;2.47;;
20972;SDS011;10645;52.370;13.314;2024-01-16T08:54:42;1.53;;;1.43;;
20972;SDS011;10645;52.370;13.314;2024-01-16T08:57:08;1.47;;;1.37;;
20972;SDS011;10645;52.370;13.314;2024-01-16T08:59:36;3.13;;;1.87;;
20972;SDS011;10645;52.370;13.314;2024-01-16T09:02:02;4.60;;;1.93;;
20972;SDS011;10645;52.370;13.314;2024-01-16T09:04:29;3.20;;;2.57;;
20972;SDS011;10645;52.370;13.314;2024-01-16T09:06:55;2.57;;;1.30;;
20972;SDS011;10645;52.370;13.314;2024-01-16T09:09:21;0.37;;;0.37;;
20972;SDS011;10645;52.370;13.314;2024-01-16T09:11:47;1.17;;;1.07;;
20972;SDS011;10645;52.370;13.314;2024-01-16T09:14:13;3.17;;;2.03;;
20972;SDS011;10645;52.370;13.314;2024-01-16T09:16:39;3.83;;;2.67;;
20972;SDS011;10645;52.370;13.314;2024-01-16T09:19:06;1.77;;;1.47;;
20972;SDS011;10645;52.370;13.314;2024-01-16T09:21:32;1.53;;;1.30;;
20972;SDS011;10645;52.370;13.314;2024-01-16T09:23:58;1.73;;;1.23;;
20972;SDS011;10645;52.370;13.314;2024-01-16T09:26:24;6.33;;;3.07;;
20972;SDS011;10645;52.370;13.314;2024-01-16T09:28:50;2.70;;;2.50;;
20972;SDS011;10645;52.370;13.314;2024-01-16T09:31:16;1.93;;;1.50;;
20972;SDS011;10645;52.370;13.314;2024-01-16T09:33:42;0.90;;;0.90;;
20972;SDS011;10645;52.370;13.314;2024-01-16T09:36:09;3.77;;;1.20;;
20972;SDS011;10645;52.370;13.314;2024-01-16T09:38:36;0.33;;;0.33;;
20972;SDS011;10645;52.370;13.314;2024-01-16T09:41:02;4.90;;;1.03;;
20972;SDS011;10645;52.370;13.314;2024-01-16T09:43:28;3.57;;;1.50;;
20972;SDS011;10645;52.370;13.314;2024-01-16T09:45:57;0.97;;;0.80;;
20972;SDS011;10645;52.370;13.314;2024-01-16T09:48:28;1.67;;;1.57;;
20972;SDS011;10645;52.370;13.314;2024-01-16T09:50:55;1.37;;;1.13;;
20972;SDS011;10645;52.370;13.314;2024-01-16T09:53:21;1.20;;;0.77;;
20972;SDS011;10645;52.370;13.314;2024-01-16T09:55:48;0.20;;;0.20;;
20972;SDS011;10645;52.370;13.314;2024-01-16T09:58:15;0.80;;;0.80;;
20972;SDS011;10645;52.370;13.314;2024-01-16T10:00:46;1.10;;;0.90;;
20972;SDS011;10645;52.370;13.314;2024-01-16T10:03:12;1.07;;;0.67;;
20972;SDS011;10645;52.370;13.314;2024-01-16T10:05:40;4.90;;;1.47;;
20972;SDS011;10645;52.370;13.314;2024-01-16T10:08:08;0.30;;;0.30;;
20972;SDS011;10645;52.370;13.314;2024-01-16T10:10:34;1.60;;;0.93;;
20972;SDS011;10645;52.370;13.314;2024-01-16T10:13:00;0.40;;;0.40;;
20972;SDS011;10645;52.370;13.314;2024-01-16T10:15:26;0.37;;;0.37;;
20972;SDS011;10645;52.370;13.314;2024-01-16T10:17:53;1.70;;;1.60;;
20972;SDS011;10645;52.370;13.314;2024-01-16T10:20:31;2.00;;;1.00;;
20972;SDS011;10645;52.370;13.314;2024-01-16T10:22:58;2.33;;;0.87;;
20972;SDS011;10645;52.370;13.314;2024-01-16T10:25:24;1.40;;;0.73;;
20972;SDS011;10645;52.370;13.314;2024-01-16T10:28:02;1.03;;;1.00;;
20972;SDS011;10645;52.370;13.314;2024-01-16T10:30:30;1.50;;;0.80;;
20972;SDS011;10645;52.370;13.314;2024-01-16T10:33:01;0.70;;;0.70;;
20972;SDS011;10645;52.370;13.314;2024-01-16T10:35:39;1.90;;;1.20;;
20972;SDS011;10645;52.370;13.314;2024-01-16T10:38:05;0.50;;;0.50;;
20972;SDS011;10645;52.370;13.314;2024-01-16T10:40:31;2.77;;;0.73;;
20972;SDS011;10645;52.370;13.314;2024-01-16T10:42:59;0.80;;;0.80;;
20972;SDS011;10645;52.370;13.314;2024-01-16T10:45:26;1.10;;;0.47;;
20972;SDS011;10645;52.370;13.314;2024-01-16T10:48:05;0.93;;;0.93;;
20972;SDS011;10645;52.370;13.314;2024-01-16T10:50:32;0.73;;;0.40;;
20972;SDS011;10645;52.370;13.314;2024-01-16T10:53:00;0.43;;;0.43;;
20972;SDS011;10645;52.370;13.314;2024-01-16T10:55:29;0.20;;;0.20;;
20972;SDS011;10645;52.370;13.314;2024-01-16T10:57:56;0.40;;;0.40;;
20972;SDS011;10645;52.370;13.314;2024-01-16T11:00:26;3.20;;;1.07;;
20972;SDS011;10645;52.370;13.314;2024-01-16T11:02:59;0.43;;;0.43;;
20972;SDS011;10645;52.370;13.314;2024-01-16T11:05:31;0.47;;;0.47;;
20972;SDS011;10645;52.370;13.314;2024-01-16T11:07:59;0.37;;;0.30;;
20972;SDS011;10645;52.370;13.314;2024-01-16T11:10:27;0.63;;;0.63;;
20972;SDS011;10645;52.370;13.314;2024-01-16T11:12:54;1.37;;;1.27;;
20972;SDS011;10645;52.370;13.314;2024-01-16T11:15:25;0.47;;;0.37;;
20972;SDS011;10645;52.370;13.314;2024-01-16T11:17:51;0.60;;;0.60;;
20972;SDS011;10645;52.370;13.314;2024-01-16T11:20:19;1.27;;;0.87;;
20972;SDS011;10645;52.370;13.314;2024-01-16T11:22:46;1.50;;;1.40;;
20972;SDS011;10645;52.370;13.314;2024-01-16T11:25:15;0.83;;;0.60;;
20972;SDS011;10645;52.370;13.314;2024-01-16T11:27:43;14.23;;;1.10;;
20972;SDS011;10645;52.370;13.314;2024-01-16T11:30:13;0.77;;;0.77;;
20972;SDS011;10645;52.370;13.314;2024-01-16T11:32:55;2.50;;;2.30;;
20972;SDS011;10645;52.370;13.314;2024-01-16T11:35:34;0.33;;;0.33;;
20972;SDS011;10645;52.370;13.314;2024-01-16T11:38:06;5.33;;;1.33;;
20972;SDS011;10645;52.370;13.314;2024-01-16T11:40:41;0.70;;;0.50;;
20972;SDS011;10645;52.370;13.314;2024-01-16T11:45:59;1.50;;;0.93;;
20972;SDS011;10645;52.370;13.314;2024-01-16T11:48:25;0.73;;;0.23;;
20972;SDS011;10645;52.370;13.314;2024-01-16T11:50:52;2.73;;;1.97;;
20972;SDS011;10645;52.370;13.314;2024-01-16T11:53:31;1.70;;;1.60;;
20972;SDS011;10645;52.370;13.314;2024-01-16T12:01:41;0.80;;;0.70;;
20972;SDS011;10645;52.370;13.314;2024-01-16T12:04:10;1.87;;;1.57;;
20972;SDS011;10645;52.370;13.314;2024-01-16T12:06:36;0.87;;;0.83;;
20972;SDS011;10645;52.370;13.314;2024-01-16T12:09:12;1.63;;;0.90;;
20972;SDS011;10645;52.370;13.314;2024-01-16T12:11:40;0.97;;;0.83;;
20972;SDS011;10645;52.370;13.314;2024-01-16T12:14:10;0.40;;;0.40;;
20972;SDS011;10645;52.370;13.314;2024-01-16T12:16:38;2.40;;;0.90;;
20972;SDS011;10645;52.370;13.314;2024-01-16T12:19:05;1.00;;;1.00;;
20972;SDS011;10645;52.370;13.314;2024-01-16T12:21:35;0.47;;;0.30;;
20972;SDS011;10645;52.370;13.314;2024-01-16T12:24:05;1.93;;;0.93;;
20972;SDS011;10645;52.370;13.314;2024-01-16T12:26:31;0.50;;;0.40;;
20972;SDS011;10645;52.370;13.314;2024-01-16T12:28:57;2.90;;;2.60;;
20972;SDS011;10645;52.370;13.314;2024-01-16T12:31:24;1.53;;;0.90;;
20972;SDS011;10645;52.370;13.314;2024-01-16T12:33:51;0.73;;;0.60;;
20972;SDS011;10645;52.370;13.314;2024-01-16T12:36:17;1.30;;;1.20;;
20972;SDS011;10645;52.370;13.314;2024-01-16T12:38:44;1.70;;;0.90;;
20972;SDS011;10645;52.370;13.314;2024-01-16T12:41:10;0.50;;;0.50;;
20972;SDS011;10645;52.370;13.314;2024-01-16T12:43:37;0.90;;;0.83;;
20972;SDS011;10645;52.370;13.314;2024-01-16T12:46:04;1.47;;;1.37;;
20972;SDS011;10645;52.370;13.314;2024-01-16T12:48:32;1.13;;;1.13;;
20972;SDS011;10645;52.370;13.314;2024-01-16T12:50:58;3.90;;;0.63;;
20972;SDS011;10645;52.370;13.314;2024-01-16T12:53:28;0.47;;;0.47;;
20972;SDS011;10645;52.370;13.314;2024-01-16T12:55:57;0.27;;;0.27;;
20972;SDS011;10645;52.370;13.314;2024-01-16T12:58:34;0.37;;;0.37;;
20972;SDS011;10645;52.370;13.314;2024-01-16T13:03:56;0.90;;;0.90;;
20972;SDS011;10645;52.370;13.314;2024-01-16T13:06:25;0.90;;;0.90;;
20972;SDS011;10645;52.370;13.314;2024-01-16T13:08:51;0.40;;;0.40;;
20972;SDS011;10645;52.370;13.314;2024-01-16T13:11:50;1.10;;;0.37;;
20972;SDS011;10645;52.370;13.314;2024-01-16T13:14:18;0.67;;;0.37;;
20972;SDS011;10645;52.370;13.314;2024-01-16T13:16:46;1.50;;;1.43;;
20972;SDS011;10645;52.370;13.314;2024-01-16T13:19:19;0.10;;;0.10;;
20972;SDS011;10645;52.370;13.314;2024-01-16T13:21:45;0.13;;;0.13;;
20972;SDS011;10645;52.370;13.314;2024-01-16T13:24:11;0.50;;;0.50;;
20972;SDS011;10645;52.370;13.314;2024-01-16T13:26:39;0.33;;;0.33;;
20972;SDS011;10645;52.370;13.314;2024-01-16T13:29:05;0.10;;;0.10;;
20972;SDS011;10645;52.370;13.314;2024-01-16T13:31:34;0.17;;;0.17;;
20972;SDS011;10645;52.370;13.314;2024-01-16T13:34:00;1.13;;;1.07;;
20972;SDS011;10645;52.370;13.314;2024-01-16T13:36:26;0.73;;;0.73;;
20972;SDS011;10645;52.370;13.314;2024-01-16T13:38:53;1.07;;;1.07;;
20972;SDS011;10645;52.370;13.314;2024-01-16T13:41:20;0.73;;;0.33;;
20972;SDS011;10645;52.370;13.314;2024-01-16T13:43:46;0.30;;;0.30;;
20972;SDS011;10645;52.370;13.314;2024-01-16T13:46:15;1.13;;;0.97;;
20972;SDS011;10645;52.370;13.314;2024-01-16T13:48:43;0.07;;;0.07;;
20972;SDS011;10645;52.370;13.314;2024-01-16T13:51:11;4.43;;;1.30;;
20972;SDS011;10645;52.370;13.314;2024-01-16T13:53:37;1.33;;;1.03;;
20972;SDS011;10645;52.370;13.314;2024-01-16T13:56:03;0.37;;;0.37;;
20972;SDS011;10645;52.370;13.314;2024-01-16T13:58:29;0.13;;;0.07;;
20972;SDS011;10645;52.370;13.314;2024-01-16T14:00:57;0.37;;;0.37;;
20972;SDS011;10645;52.370;13.314;2024-01-16T14:03:23;0.07;;;0.07;;
20972;SDS011;10645;52.370;13.314;2024-01-16T14:05:49;0.00;;;0.00;;
20972;SDS011;10645;52.370;13.314;2024-01-16T14:08:16;0.20;;;0.20;;
20972;SDS011;10645;52.370;13.314;2024-01-16T14:10:42;0.80;;;0.80;;
20972;SDS011;10645;52.370;13.314;2024-01-16T14:13:08;4.70;;;1.17;;
20972;SDS011;10645;52.370;13.314;2024-01-16T14:15:34;0.33;;;0.30;;
20972;SDS011;10645;52.370;13.314;2024-01-16T14:18:01;0.80;;;0.80;;
20972;SDS011;10645;52.370;13.314;2024-01-16T14:20:28;0.40;;;0.40;;
20972;SDS011;10645;52.370;13.314;2024-01-16T14:22:55;1.80;;;1.70;;
20972;SDS011;10645;52.370;13.314;2024-01-16T14:25:22;0.27;;;0.27;;
20972;SDS011;10645;52.370;13.314;2024-01-16T14:27:50;0.53;;;0.53;;
20972;SDS011;10645;52.370;13.314;2024-01-16T14:30:26;0.67;;;0.60;;
20972;SDS011;10645;52.370;13.314;2024-01-16T14:32:52;0.60;;;0.60;;
20972;SDS011;10645;52.370;13.314;2024-01-16T14:35:19;5.60;;;1.33;;
20972;SDS011;10645;52.370;13.314;2024-01-16T14:37:45;1.37;;;0.57;;
20972;SDS011;10645;52.370;13.314;2024-01-16T14:40:11;5.00;;;1.80;;
20972;SDS011;10645;52.370;13.314;2024-01-16T14:42:51;0.40;;;0.40;;
20972;SDS011;10645;52.370;13.314;2024-01-16T14:45:19;3.40;;;1.83;;